Time;durP1;ratioP1;P1;durP2;ratioP2;P2;SDS_P1;SDS_P2;PMS_P1;PMS_P2;Temp;Humidity;BMP_temperature;BMP_pressure;BME280_temperature;BME280_humidity;BME280_pressure;Samples;Min_cycle;Max_cycle;Signal;HPM_P1;HPM_P2
2021/04/14 00:00:21;;;;;;;9.07;3.57;;;3.30;99.90;;;;;;4958827;28;20046;-73
2021/04/14 00:02:47;;;;;;;9.13;3.20;;;3.30;99.90;;;;;;4959108;28;20708;-73
2021/04/14 00:05:15;;;;;;;10.00;3.27;;;3.40;99.90;;;;;;4959126;28;20495;-73
2021/04/14 00:07:41;;;;;;;13.70;3.90;;;3.40;99.90;;;;;;4958542;28;20084;-73
2021/04/14 00:10:08;;;;;;;8.93;3.43;;;3.30;99.90;;;;;;4959885;28;20061;-73
2021/04/14 00:12:35;;;;;;;15.37;4.33;;;3.30;99.90;;;;;;4957789;28;20086;-73
2021/04/14 00:15:06;;;;;;;10.53;3.43;;;3.30;99.90;;;;;;4958128;28;20050;-73
2021/04/14 00:17:34;;;;;;;12.00;4.00;;;3.20;99.90;;;;;;4958938;28;20454;-73
2021/04/14 00:20:00;;;;;;;10.47;3.80;;;3.20;99.90;;;;;;4958975;28;20089;-73
2021/04/14 00:22:27;;;;;;;11.70;3.87;;;3.10;99.90;;;;;;4959744;28;20451;-73
2021/04/14 00:24:53;;;;;;;14.70;4.17;;;3.10;99.90;;;;;;4958531;28;20054;-73
2021/04/14 00:27:20;;;;;;;11.43;4.10;;;3.10;99.90;;;;;;4958340;28;20070;-74
2021/04/14 00:29:46;;;;;;;13.30;5.00;;;3.10;99.90;;;;;;4959059;28;20522;-73
2021/04/14 00:32:12;;;;;;;8.87;3.80;;;3.00;99.90;;;;;;4958949;28;20050;-73
2021/04/14 00:34:40;;;;;;;8.20;3.40;;;3.10;99.90;;;;;;4959449;28;20046;-73
2021/04/14 00:37:06;;;;;;;13.77;4.20;;;3.00;99.90;;;;;;4957309;28;20046;-73
2021/04/14 00:39:33;;;;;;;14.30;4.63;;;2.90;99.90;;;;;;4959358;28;20050;-73
2021/04/14 00:41:59;;;;;;;9.47;4.13;;;2.90;99.90;;;;;;4958096;28;20097;-73
2021/04/14 00:44:26;;;;;;;11.60;4.37;;;2.80;99.90;;;;;;4958170;28;20090;-73
2021/04/14 00:46:52;;;;;;;11.43;4.03;;;2.80;99.90;;;;;;4955758;28;20128;-73
2021/04/14 00:49:19;;;;;;;9.93;4.03;;;2.70;99.90;;;;;;4957470;28;20510;-74
2021/04/14 00:51:47;;;;;;;10.33;3.70;;;2.70;99.90;;;;;;4958351;28;20050;-73
2021/04/14 00:54:14;;;;;;;9.97;3.93;;;2.60;99.90;;;;;;4957820;28;20410;-73
2021/04/14 00:56:40;;;;;;;12.33;3.43;;;2.60;99.90;;;;;;4956930;28;20049;-73
2021/04/14 00:59:07;;;;;;;9.27;4.07;;;2.50;99.90;;;;;;4956419;28;20054;-73
2021/04/14 01:01:33;;;;;;;10.57;3.73;;;2.50;99.90;;;;;;4956657;28;20074;-74
2021/04/14 01:04:00;;;;;;;11.50;3.93;;;2.50;99.90;;;;;;4958621;28;20999;-73
2021/04/14 01:06:28;;;;;;;11.60;4.17;;;2.40;99.90;;;;;;4958595;28;20061;-73
2021/04/14 01:08:58;;;;;;;10.43;3.67;;;2.40;99.90;;;;;;4957442;28;20086;-73
2021/04/14 01:11:26;;;;;;;9.00;3.87;;;2.40;99.90;;;;;;4957347;28;20133;-73
2021/04/14 01:13:53;;;;;;;9.30;3.93;;;2.30;99.90;;;;;;4957179;28;20050;-73
2021/04/14 01:16:20;;;;;;;8.67;3.40;;;2.30;99.90;;;;;;4959709;28;20058;-73
2021/04/14 01:18:47;;;;;;;8.40;3.57;;;2.20;99.90;;;;;;4956124;28;20050;-72
2021/04/14 01:21:19;;;;;;;9.93;3.60;;;2.30;99.90;;;;;;4958228;28;20054;-74
2021/04/14 01:23:46;;;;;;;8.87;3.70;;;2.30;99.90;;;;;;4956509;28;20097;-73
2021/04/14 01:26:13;;;;;;;10.93;3.93;;;2.30;99.90;;;;;;4956746;28;20054;-73
2021/04/14 01:28:41;;;;;;;10.33;3.73;;;2.30;99.90;;;;;;4956294;28;20538;-73
2021/04/14 01:31:10;;;;;;;7.70;3.40;;;2.20;99.90;;;;;;4956527;28;21029;-73
2021/04/14 01:33:37;;;;;;;12.20;3.80;;;2.30;99.90;;;;;;4957198;28;20051;-73
2021/04/14 01:36:06;;;;;;;7.60;3.47;;;2.20;99.90;;;;;;4957168;28;21180;-74
2021/04/14 01:38:34;;;;;;;8.63;3.47;;;2.20;99.90;;;;;;4960212;28;20149;-73
2021/04/14 01:41:02;;;;;;;8.47;3.57;;;2.00;99.90;;;;;;4960563;28;20050;-73
2021/04/14 01:43:29;;;;;;;10.10;4.00;;;1.80;99.90;;;;;;4959852;28;20050;-73
2021/04/14 01:45:55;;;;;;;11.13;3.50;;;1.80;99.90;;;;;;4960656;28;20113;-73
2021/04/14 01:48:22;;;;;;;11.63;3.90;;;1.80;99.90;;;;;;4959413;28;20061;-73
2021/04/14 01:50:49;;;;;;;8.77;3.67;;;1.90;99.90;;;;;;4960764;28;20094;-73
2021/04/14 01:53:18;;;;;;;9.37;3.40;;;1.90;99.90;;;;;;4960452;28;20057;-73
2021/04/14 01:55:47;;;;;;;10.23;3.23;;;1.80;99.90;;;;;;4960424;28;20120;-70
2021/04/14 01:58:15;;;;;;;7.67;3.40;;;1.70;99.90;;;;;;4959608;28;20054;-70
2021/04/14 02:00:47;;;;;;;12.63;5.30;;;1.70;99.90;;;;;;4961850;28;20066;-70
2021/04/14 02:03:14;;;;;;;9.27;3.77;;;1.70;99.90;;;;;;4960039;28;20051;-70
2021/04/14 02:05:40;;;;;;;8.13;3.30;;;1.80;99.90;;;;;;4960024;28;20125;-70
2021/04/14 02:08:07;;;;;;;12.20;4.00;;;1.80;99.90;;;;;;4959493;28;20086;-70
2021/04/14 02:10:34;;;;;;;12.70;3.93;;;1.60;99.90;;;;;;4960542;28;20144;-70
2021/04/14 02:13:04;;;;;;;8.93;3.43;;;1.70;99.90;;;;;;4960591;28;20113;-70
2021/04/14 02:15:33;;;;;;;9.63;4.00;;;1.70;99.90;;;;;;4960954;28;20089;-70
2021/04/14 02:17:59;;;;;;;12.40;3.53;;;1.70;99.90;;;;;;4959574;28;20499;-70
2021/04/14 02:20:26;;;;;;;11.57;4.47;;;1.60;99.90;;;;;;4960484;28;20046;-70
2021/04/14 02:22:53;;;;;;;7.43;3.60;;;1.60;99.90;;;;;;4960150;28;20053;-70
2021/04/14 02:25:22;;;;;;;11.50;4.27;;;1.60;99.90;;;;;;4959686;28;20050;-70
2021/04/14 02:27:49;;;;;;;10.93;3.60;;;1.50;99.90;;;;;;4959363;28;20061;-70
2021/04/14 02:30:21;;;;;;;10.63;3.97;;;1.50;99.90;;;;;;4960552;28;20054;-70
2021/04/14 02:32:47;;;;;;;8.53;3.70;;;1.40;99.90;;;;;;4960014;28;20550;-70
2021/04/14 02:35:14;;;;;;;11.13;4.33;;;1.40;99.90;;;;;;4960175;28;20109;-70
2021/04/14 02:37:40;;;;;;;9.47;4.10;;;1.40;99.90;;;;;;4958159;28;20061;-70
2021/04/14 02:40:09;;;;;;;11.13;3.90;;;1.40;99.90;;;;;;4959450;28;20061;-70
2021/04/14 02:42:35;;;;;;;8.03;3.50;;;1.40;99.90;;;;;;4959859;28;20157;-71
2021/04/14 02:45:03;;;;;;;8.70;3.87;;;1.30;99.90;;;;;;4958291;28;20506;-70
2021/04/14 02:47:30;;;;;;;10.97;4.23;;;1.30;99.90;;;;;;4959346;28;20050;-70
2021/04/14 02:49:57;;;;;;;9.73;3.77;;;1.30;99.90;;;;;;4960340;28;20113;-70
2021/04/14 02:52:23;;;;;;;12.63;4.43;;;1.40;99.90;;;;;;4959547;28;20471;-70
2021/04/14 02:54:49;;;;;;;11.63;4.13;;;1.50;99.90;;;;;;4959641;28;20065;-70
2021/04/14 02:57:16;;;;;;;10.17;4.30;;;1.40;99.90;;;;;;4959497;28;20054;-71
2021/04/14 02:59:43;;;;;;;12.17;4.17;;;1.30;99.90;;;;;;4960063;28;20489;-70
2021/04/14 03:02:09;;;;;;;10.07;4.37;;;1.20;99.90;;;;;;4958424;28;20594;-70
2021/04/14 03:04:37;;;;;;;9.70;4.03;;;1.20;99.90;;;;;;4960359;28;20403;-71
2021/04/14 03:07:04;;;;;;;10.37;4.20;;;1.00;99.90;;;;;;4957694;28;20069;-70
2021/04/14 03:09:30;;;;;;;10.40;4.13;;;1.10;99.90;;;;;;4959819;28;20050;-70
2021/04/14 03:11:57;;;;;;;10.20;4.43;;;1.00;99.90;;;;;;4960083;28;20050;-71
2021/04/14 03:14:23;;;;;;;9.10;3.87;;;0.90;99.90;;;;;;4958335;28;20115;-70
2021/04/14 03:16:50;;;;;;;14.47;4.60;;;0.90;99.90;;;;;;4960090;28;20054;-70
2021/04/14 03:19:16;;;;;;;10.33;4.03;;;0.90;99.90;;;;;;4959426;28;20051;-70
2021/04/14 03:21:44;;;;;;;10.20;3.80;;;0.90;99.90;;;;;;4959228;28;20062;-70
2021/04/14 03:24:11;;;;;;;16.37;5.00;;;0.80;99.90;;;;;;4959897;28;20050;-70
2021/04/14 03:26:37;;;;;;;7.33;3.77;;;0.90;99.90;;;;;;4958891;28;20050;-70
2021/04/14 03:29:03;;;;;;;12.67;4.33;;;0.90;99.90;;;;;;4959028;28;20062;-73
2021/04/14 03:31:32;;;;;;;9.77;4.60;;;0.90;99.90;;;;;;4961104;28;20510;-72
2021/04/14 03:33:58;;;;;;;15.80;6.07;;;1.10;99.90;;;;;;4959303;28;20057;-73
2021/04/14 03:36:25;;;;;;;10.40;4.60;;;1.20;99.90;;;;;;4959767;28;20047;-73
2021/04/14 03:38:52;;;;;;;11.80;4.80;;;1.10;99.90;;;;;;4958565;28;20054;-72
2021/04/14 03:41:19;;;;;;;12.20;5.23;;;1.00;99.90;;;;;;4958848;28;20440;-72
2021/04/14 03:43:46;;;;;;;9.57;4.40;;;1.00;99.90;;;;;;4957898;28;20113;-72
2021/04/14 03:46:14;;;;;;;9.90;4.30;;;0.90;99.90;;;;;;4958974;28;20054;-72
2021/04/14 03:48:41;;;;;;;10.87;4.50;;;0.80;99.90;;;;;;4957493;28;20058;-72
2021/04/14 03:51:07;;;;;;;10.80;4.37;;;0.80;99.90;;;;;;4957250;28;20061;-72
2021/04/14 03:53:37;;;;;;;13.20;5.03;;;0.80;99.90;;;;;;4959044;28;20074;-72
2021/04/14 03:56:07;;;;;;;12.87;4.67;;;0.80;99.90;;;;;;4956967;28;21446;-69
2021/04/14 03:58:35;;;;;;;14.10;4.73;;;0.80;99.90;;;;;;4958214;28;20065;-70
2021/04/14 04:01:08;;;;;;;13.77;4.50;;;0.80;99.90;;;;;;4957311;28;20136;-70
2021/04/14 04:03:35;;;;;;;9.10;4.60;;;0.80;99.90;;;;;;4959095;28;20109;-70
2021/04/14 04:06:02;;;;;;;18.80;4.23;;;0.70;99.90;;;;;;4958402;28;20058;-70
2021/04/14 04:08:28;;;;;;;9.77;4.33;;;0.70;99.90;;;;;;4958059;28;20046;-70
2021/04/14 04:10:55;;;;;;;9.13;4.57;;;0.70;99.90;;;;;;4959446;28;20533;-71
2021/04/14 04:13:22;;;;;;;13.57;4.93;;;0.70;99.90;;;;;;4957444;28;20055;-70
2021/04/14 04:15:49;;;;;;;10.23;4.70;;;0.70;99.90;;;;;;4959580;28;20050;-70
2021/04/14 04:18:15;;;;;;;13.13;5.63;;;0.70;99.90;;;;;;4956948;28;20090;-70
2021/04/14 04:20:42;;;;;;;15.27;5.40;;;0.70;99.90;;;;;;4958775;28;20525;-70
2021/04/14 04:23:10;;;;;;;15.17;6.00;;;0.70;99.90;;;;;;4957797;28;20491;-70
2021/04/14 04:25:38;;;;;;;23.53;6.83;;;0.70;99.90;;;;;;4957236;28;20128;-70
2021/04/14 04:28:05;;;;;;;16.10;5.90;;;0.70;99.90;;;;;;4958078;28;20081;-70
2021/04/14 04:30:33;;;;;;;13.53;6.07;;;0.60;99.90;;;;;;4958381;28;20129;-70
2021/04/14 04:33:01;;;;;;;13.27;5.70;;;0.60;99.90;;;;;;4958729;28;20065;-70
2021/04/14 04:35:30;;;;;;;15.47;5.80;;;0.60;99.90;;;;;;4957738;28;20057;-70
2021/04/14 04:37:56;;;;;;;13.20;5.80;;;0.60;99.90;;;;;;4957448;28;20062;-70
2021/04/14 04:40:24;;;;;;;14.33;6.27;;;0.60;99.90;;;;;;4960737;28;20053;-70
2021/04/14 04:42:51;;;;;;;15.53;6.60;;;0.60;99.90;;;;;;4961236;28;20319;-70
2021/04/14 04:45:20;;;;;;;19.07;6.60;;;0.70;99.90;;;;;;4957891;28;20479;-70
2021/04/14 04:47:48;;;;;;;16.53;5.97;;;0.70;99.90;;;;;;4956820;28;20081;-70
2021/04/14 04:50:18;;;;;;;14.23;6.23;;;0.70;99.90;;;;;;4956879;28;20580;-69
2021/04/14 04:52:44;;;;;;;11.23;6.23;;;0.60;99.90;;;;;;4958014;28;20050;-72
2021/04/14 04:55:13;;;;;;;13.50;6.53;;;0.60;99.90;;;;;;4956845;28;20483;-72
2021/04/14 04:57:39;;;;;;;14.93;6.37;;;0.60;99.90;;;;;;4956297;28;20057;-72
2021/04/14 05:00:08;;;;;;;15.20;6.27;;;0.50;99.90;;;;;;4957458;28;20078;-72
2021/04/14 05:02:34;;;;;;;12.83;6.13;;;0.60;99.90;;;;;;4958452;28;20061;-72
2021/04/14 05:05:02;;;;;;;27.67;9.00;;;0.60;99.90;;;;;;4956581;28;20088;-72
2021/04/14 05:07:29;;;;;;;14.63;6.27;;;0.70;99.90;;;;;;4955774;28;20057;-72
2021/04/14 05:09:55;;;;;;;16.17;7.03;;;0.70;99.90;;;;;;4958125;28;20456;-72
2021/04/14 05:12:22;;;;;;;20.33;7.93;;;0.70;99.90;;;;;;4957240;28;20062;-72
2021/04/14 05:14:48;;;;;;;22.67;7.20;;;0.80;99.90;;;;;;4958183;28;20144;-70
2021/04/14 05:17:14;;;;;;;17.57;7.20;;;0.80;99.90;;;;;;4957260;28;20696;-70
2021/04/14 05:19:41;;;;;;;17.87;8.37;;;0.80;99.90;;;;;;4958354;28;20272;-69
2021/04/14 05:22:09;;;;;;;21.20;7.03;;;0.80;99.90;;;;;;4958264;28;20121;-69
2021/04/14 05:24:35;;;;;;;18.93;7.90;;;0.90;99.90;;;;;;4958878;28;20442;-70
2021/04/14 05:27:02;;;;;;;19.33;7.70;;;1.00;99.90;;;;;;4957193;28;20073;-69
2021/04/14 05:29:28;;;;;;;18.30;7.47;;;1.00;99.90;;;;;;4957347;28;20495;-70
2021/04/14 05:31:55;;;;;;;24.37;6.73;;;1.00;99.90;;;;;;4957578;28;20053;-70
2021/04/14 05:34:21;;;;;;;14.50;6.70;;;1.00;99.90;;;;;;4958553;28;20066;-70
2021/04/14 05:36:48;;;;;;;17.37;5.83;;;1.00;99.90;;;;;;4961634;28;20056;-70
2021/04/14 05:39:16;;;;;;;16.57;5.70;;;1.10;99.90;;;;;;4960747;28;20545;-70
2021/04/14 05:41:42;;;;;;;14.23;5.27;;;1.20;99.90;;;;;;4961681;28;20819;-70
2021/04/14 05:44:09;;;;;;;13.40;4.87;;;1.20;99.90;;;;;;4965844;28;20542;-70
2021/04/14 05:46:35;;;;;;;28.30;6.97;;;1.40;99.90;;;;;;4966521;28;20054;-70
2021/04/14 05:49:02;;;;;;;10.73;4.90;;;1.30;99.90;;;;;;4964858;28;20054;-72
2021/04/14 05:51:30;;;;;;;12.73;5.00;;;1.30;99.90;;;;;;4959400;28;20054;-71
2021/04/14 05:53:57;;;;;;;10.17;5.33;;;1.30;99.90;;;;;;4959496;28;20583;-71
2021/04/14 05:56:25;;;;;;;20.00;5.53;;;1.40;99.90;;;;;;4962695;28;20050;-72
2021/04/14 05:58:51;;;;;;;20.70;5.10;;;1.40;99.90;;;;;;4957055;28;20629;-72
2021/04/14 06:01:20;;;;;;;19.30;5.17;;;1.40;99.90;;;;;;4959449;28;20121;-72
2021/04/14 06:03:49;;;;;;;13.70;5.00;;;1.40;99.90;;;;;;4954719;28;20054;-69
2021/04/14 06:06:16;;;;;;;12.47;4.47;;;1.60;99.90;;;;;;4958375;28;20056;-69
2021/04/14 06:08:42;;;;;;;12.73;4.97;;;1.60;99.90;;;;;;4957759;28;20100;-70
2021/04/14 06:11:09;;;;;;;17.47;5.00;;;1.80;99.90;;;;;;4956659;28;20137;-70
2021/04/14 06:13:36;;;;;;;12.67;4.83;;;1.90;99.90;;;;;;4961371;28;20090;-70
2021/04/14 06:16:05;;;;;;;14.67;5.00;;;1.90;99.90;;;;;;4957015;28;20050;-69
2021/04/14 06:18:31;;;;;;;12.27;4.70;;;1.80;99.90;;;;;;4958662;28;20093;-72
2021/04/14 06:20:59;;;;;;;13.37;4.57;;;1.80;99.90;;;;;;4964458;28;20085;-71
2021/04/14 06:23:26;;;;;;;18.07;5.20;;;1.80;99.90;;;;;;4959536;28;20046;-69
2021/04/14 06:25:58;;;;;;;9.73;4.67;;;1.90;99.90;;;;;;4959987;28;20081;-68
2021/04/14 06:28:29;;;;;;;15.73;4.93;;;2.00;99.90;;;;;;4959154;28;20985;-68
2021/04/14 06:30:57;;;;;;;14.63;5.27;;;2.00;99.90;;;;;;4961226;28;20078;-69
2021/04/14 06:33:25;;;;;;;13.67;4.83;;;2.10;99.90;;;;;;4961278;28;20050;-72
2021/04/14 06:35:52;;;;;;;11.27;4.50;;;2.20;99.90;;;;;;4959931;28;20109;-71
2021/04/14 06:38:23;;;;;;;13.90;3.97;;;2.20;99.90;;;;;;4959799;28;20065;-73
2021/04/14 06:43:47;;;;;;;14.60;4.80;;;2.40;99.90;;;;;;4963234;28;20038;-73
2021/04/14 06:46:18;;;;;;;9.90;4.70;;;2.50;99.90;;;;;;4964914;28;20546;-74
2021/04/14 06:48:52;;;;;;;11.77;4.73;;;2.60;99.90;;;;;;4955501;28;20054;-74
2021/04/14 06:51:26;;;;;;;16.33;4.80;;;2.80;99.90;;;;;;4963649;28;20055;-72
2021/04/14 06:54:06;;;;;;;10.77;5.03;;;2.80;99.90;;;;;;4963853;28;20141;-72
2021/04/14 06:56:34;;;;;;;10.70;3.87;;;2.90;99.90;;;;;;4963862;28;20086;-72
2021/04/14 06:59:04;;;;;;;12.37;4.77;;;3.00;99.90;;;;;;4967456;28;20081;-72
2021/04/14 07:01:37;;;;;;;15.03;5.17;;;3.10;99.90;;;;;;4971385;28;20050;-72
2021/04/14 07:04:08;;;;;;;15.43;4.47;;;3.00;99.90;;;;;;4970023;28;20124;-74
2021/04/14 07:06:38;;;;;;;15.07;4.83;;;3.10;99.90;;;;;;4972511;28;20129;-74
2021/04/14 07:09:12;;;;;;;12.97;4.40;;;3.20;99.90;;;;;;4973349;28;20182;-72
2021/04/14 07:11:39;;;;;;;9.30;4.37;;;3.30;99.90;;;;;;4973250;28;20495;-74
2021/04/14 07:14:06;;;;;;;11.50;4.23;;;3.40;99.90;;;;;;4973398;28;20057;-72
2021/04/14 07:17:04;;;;;;;12.53;4.33;;;3.50;99.90;;;;;;4973510;28;20392;-74
2021/04/14 07:19:47;;;;;;;16.77;4.60;;;3.70;99.90;;;;;;4970140;28;20139;-72
2021/04/14 07:22:21;;;;;;;10.40;4.83;;;3.80;99.90;;;;;;4972812;28;20073;-74
2021/04/14 07:24:52;;;;;;;10.27;4.70;;;3.90;99.90;;;;;;4973953;28;20057;-74
2021/04/14 07:27:26;;;;;;;12.40;4.90;;;4.00;99.90;;;;;;4973350;28;20180;-75
2021/04/14 07:30:00;;;;;;;18.27;6.03;;;4.10;99.90;;;;;;4969216;28;20542;-72
2021/04/14 07:32:37;;;;;;;12.07;4.20;;;4.20;99.90;;;;;;4973751;28;20046;-74
2021/04/14 07:35:17;;;;;;;8.88;4.30;;;4.40;99.90;;;;;;4972947;28;20129;-72
2021/04/14 07:37:53;;;;;;;8.70;4.00;;;4.40;99.90;;;;;;4972305;28;20082;-72
2021/04/14 07:40:24;;;;;;;9.35;3.72;;;4.60;99.90;;;;;;4972741;28;20051;-74
2021/04/14 07:42:59;;;;;;;11.47;3.97;;;4.80;99.90;;;;;;4971849;28;20093;-72
2021/04/14 07:45:30;;;;;;;11.33;3.60;;;5.00;99.90;;;;;;4972730;28;20140;-73
2021/04/14 07:48:04;;;;;;;9.50;3.37;;;5.20;99.90;;;;;;4971836;28;20082;-73
2021/04/14 07:50:35;;;;;;;8.33;3.53;;;5.30;99.90;;;;;;4972307;28;20533;-72
2021/04/14 07:53:01;;;;;;;6.67;3.10;;;5.50;99.90;;;;;;4972697;28;20042;-74
2021/04/14 07:55:33;;;;;;;11.80;4.27;;;5.50;99.90;;;;;;4971138;28;20050;-74
2021/04/14 07:58:09;;;;;;;13.80;4.50;;;5.60;99.90;;;;;;4972485;28;20533;-72
2021/04/14 08:00:37;;;;;;;11.33;3.73;;;5.60;99.90;;;;;;4973645;28;20051;-73
2021/04/14 08:03:22;;;;;;;7.93;2.83;;;5.90;99.90;;;;;;4970967;28;20089;-74
2021/04/14 08:05:49;;;;;;;12.63;3.60;;;6.20;99.90;;;;;;4969291;28;20426;-73
2021/04/14 08:08:16;;;;;;;;;;;6.30;99.90;;;;;;4971400;28;20051;-73
2021/04/14 08:10:55;;;;;;;10.17;2.90;;;6.40;99.90;;;;;;4971169;28;20306;-73
2021/04/14 08:13:26;;;;;;;7.93;3.20;;;6.60;99.90;;;;;;4972200;28;20054;-73
2021/04/14 08:15:53;;;;;;;14.37;2.97;;;6.70;99.90;;;;;;4966415;28;20058;-74
2021/04/14 08:18:29;;;;;;;9.00;2.67;;;7.00;99.90;;;;;;4970203;28;20129;-73
2021/04/14 08:21:12;;;;;;;10.63;3.13;;;7.30;99.90;;;;;;4972134;28;20085;-73
2021/04/14 08:23:40;;;;;;;8.70;2.90;;;7.60;99.90;;;;;;4970375;28;20049;-73
2021/04/14 08:26:16;;;;;;;7.93;2.60;;;8.00;99.90;;;;;;4969673;28;20105;-73
2021/04/14 08:28:46;;;;;;;8.57;2.90;;;8.40;99.90;;;;;;4970019;28;20081;-75
2021/04/14 08:31:20;;;;;;;7.63;2.28;;;8.80;99.90;;;;;;4971721;28;20065;-73
2021/04/14 08:33:52;;;;;;;10.98;2.05;;;9.30;99.90;;;;;;4971526;28;20140;-75
2021/04/14 08:36:26;;;;;;;11.18;2.38;;;10.10;99.90;;;;;;4971451;28;20089;-74
2021/04/14 08:38:53;;;;;;;4.85;1.95;;;11.10;99.90;;;;;;4965203;28;20176;-76
2021/04/14 08:41:21;;;;;;;;;;;11.90;99.90;;;;;;4962278;28;20082;-70
2021/04/14 08:43:51;;;;;;;6.80;2.30;;;13.00;99.90;;;;;;4961257;28;19944;-71
2021/04/14 08:46:24;;;;;;;6.18;2.42;;;13.90;98.30;;;;;;4961977;28;20145;-72
2021/04/14 08:48:57;;;;;;;5.03;1.88;;;14.10;95.10;;;;;;4972514;28;20433;-71
2021/04/14 08:51:25;;;;;;;6.68;2.22;;;14.80;91.90;;;;;;4972624;28;20058;-71
2021/04/14 08:53:56;;;;;;;5.95;1.83;;;14.80;86.40;;;;;;4972998;28;20054;-72
2021/04/14 08:56:26;;;;;;;7.28;2.42;;;14.80;86.60;;;;;;4973549;28;20057;-73
2021/04/14 08:58:55;;;;;;;7.90;2.53;;;14.60;85.10;;;;;;4973347;28;20058;-69
2021/04/14 09:01:23;;;;;;;7.20;2.60;;;13.90;85.40;;;;;;4974227;28;20870;-73
2021/04/14 09:03:56;;;;;;;8.82;2.28;;;13.70;88.00;;;;;;4975574;28;20054;-75
2021/04/14 09:06:23;;;;;;;6.40;2.40;;;14.20;84.80;;;;;;4970334;28;20065;-76
2021/04/14 09:08:52;;;;;;;6.78;2.00;;;13.50;85.10;;;;;;4970007;28;20054;-78
2021/04/14 09:11:22;;;;;;;5.78;1.90;;;13.80;85.10;;;;;;4969646;28;20058;-78
2021/04/14 09:13:54;;;;;;;6.93;1.85;;;15.00;81.30;;;;;;4969225;28;20054;-73
2021/04/14 09:16:30;;;;;;;5.95;1.48;;;16.20;73.30;;;;;;4965684;28;20058;-75
2021/04/14 09:19:08;;;;;;;4.95;1.88;;;17.40;69.30;;;;;;4969478;28;20069;-75
2021/04/14 09:21:44;;;;;;;4.25;1.50;;;18.00;65.90;;;;;;4970730;28;20101;-81
2021/04/14 09:24:27;;;;;;;5.40;1.85;;;19.10;61.80;;;;;;4969800;28;20515;-77
2021/04/14 09:26:56;;;;;;;5.15;1.65;;;18.70;56.10;;;;;;4967613;28;20133;-77
2021/04/14 09:29:26;;;;;;;7.10;1.73;;;17.80;55.70;;;;;;4965846;28;20089;-76
2021/04/14 09:31:55;;;;;;;4.95;1.63;;;16.30;57.90;;;;;;4968642;28;20498;-76
2021/04/14 09:34:34;;;;;;;5.28;1.70;;;16.70;59.90;;;;;;4973771;28;20046;-77
2021/04/14 09:37:04;;;;;;;11.15;1.73;;;17.40;58.10;;;;;;4965639;28;20105;-75
2021/04/14 09:39:34;;;;;;;5.05;1.65;;;16.40;57.10;;;;;;4975244;28;20054;-76
2021/04/14 09:42:01;;;;;;;8.77;1.90;;;15.10;59.50;;;;;;4974470;28;20520;-75
2021/04/14 09:44:46;;;;;;;6.82;1.85;;;14.60;60.70;;;;;;4972839;28;20042;-76
2021/04/14 09:47:20;;;;;;;4.80;1.77;;;13.60;63.30;;;;;;4970148;28;20533;-75
2021/04/14 09:49:49;;;;;;;5.35;1.70;;;13.50;65.30;;;;;;4970806;28;21058;-76
2021/04/14 09:52:26;;;;;;;5.68;1.40;;;14.60;61.40;;;;;;4970754;28;20054;-76
2021/04/14 09:54:56;;;;;;;6.25;1.67;;;14.50;61.90;;;;;;4971324;28;20058;-76
2021/04/14 09:57:29;;;;;;;9.32;1.58;;;13.90;60.40;;;;;;4958183;28;20106;-76
2021/04/14 09:59:57;;;;;;;6.07;1.23;;;13.30;62.70;;;;;;4957703;28;20130;-76
2021/04/14 10:02:27;;;;;;;6.90;1.58;;;14.10;62.10;;;;;;4968160;28;20050;-76
2021/04/14 10:04:54;;;;;;;5.72;1.40;;;15.30;60.30;;;;;;4972492;28;20057;-76
2021/04/14 10:07:24;;;;;;;7.63;1.67;;;16.90;59.50;;;;;;4972019;28;20264;-76
2021/04/14 10:09:51;;;;;;;4.05;1.40;;;17.70;57.80;;;;;;4972188;28;20503;-76
2021/04/14 10:12:21;;;;;;;8.02;2.00;;;18.30;55.00;;;;;;4970991;28;20042;-78
2021/04/14 10:14:50;;;;;;;5.57;1.35;;;19.10;55.00;;;;;;4971306;28;20054;-78
2021/04/14 10:17:20;;;;;;;4.95;1.65;;;19.10;52.20;;;;;;4969657;28;20567;-78
2021/04/14 10:19:53;;;;;;;3.13;1.50;;;19.20;54.80;;;;;;4971671;28;20053;-81
2021/04/14 10:22:26;;;;;;;6.07;1.63;;;18.50;52.70;;;;;;4969819;28;20100;-80
2021/04/14 10:25:00;;;;;;;5.03;1.40;;;18.70;54.60;;;;;;4969605;28;20057;-78
2021/04/14 10:27:29;;;;;;;9.15;1.58;;;17.50;53.60;;;;;;4971228;28;20054;-77
2021/04/14 10:29:55;;;;;;;7.57;1.90;;;15.70;56.40;;;;;;4975223;28;20152;-78
2021/04/14 10:32:25;;;;;;;4.10;1.30;;;15.00;56.20;;;;;;4975706;28;20510;-77
2021/04/14 10:34:52;;;;;;;6.55;1.30;;;14.00;57.80;;;;;;4974524;28;20053;-77
2021/04/14 10:37:23;;;;;;;5.68;1.65;;;13.20;58.50;;;;;;4971000;28;20054;-79
2021/04/14 10:39:50;;;;;;;5.20;1.27;;;12.80;59.10;;;;;;4966040;28;20312;-79
2021/04/14 10:42:19;;;;;;;5.68;1.40;;;12.40;58.50;;;;;;4967313;28;20053;-77
2021/04/14 10:44:47;;;;;;;7.35;1.25;;;12.10;60.60;;;;;;4968938;28;20042;-76
2021/04/14 10:47:19;;;;;;;7.57;1.25;;;11.90;60.00;;;;;;4976150;28;20065;-76
2021/04/14 10:49:46;;;;;;;6.53;1.42;;;11.80;58.60;;;;;;4978291;28;20066;-76
2021/04/14 10:52:19;;;;;;;3.92;1.33;;;11.70;58.20;;;;;;4977883;28;20058;-76
2021/04/14 10:54:49;;;;;;;6.55;1.50;;;12.00;59.10;;;;;;4977865;28;20299;-79
2021/04/14 10:57:25;;;;;;;7.57;1.35;;;13.70;59.60;;;;;;4976232;28;20570;-77
2021/04/14 10:59:52;;;;;;;3.88;1.20;;;14.90;57.20;;;;;;4977426;28;20050;-78
2021/04/14 11:02:22;;;;;;;3.70;1.23;;;14.40;56.70;;;;;;4977290;28;20395;-79
2021/04/14 11:04:51;;;;;;;8.90;1.42;;;13.80;57.10;;;;;;4979038;28;20054;-76
2021/04/14 11:07:21;;;;;;;2.85;1.20;;;13.10;57.60;;;;;;4962235;28;20049;-80
2021/04/14 11:09:50;;;;;;;8.75;1.33;;;12.30;58.30;;;;;;4966664;28;20054;-74
2021/04/14 11:12:19;;;;;;;7.93;1.63;;;12.30;59.40;;;;;;4966635;28;20054;-77
2021/04/14 11:14:49;;;;;;;7.70;1.88;;;12.10;58.60;;;;;;4966326;28;20086;-79
2021/04/14 11:17:22;;;;;;;7.55;1.58;;;12.00;58.00;;;;;;4976166;28;21479;-80
2021/04/14 11:19:57;;;;;;;6.75;1.38;;;11.90;58.10;;;;;;4978767;28;20547;-76
2021/04/14 11:22:24;;;;;;;3.97;0.98;;;11.80;58.00;;;;;;4978401;28;20521;-75
2021/04/14 11:24:53;;;;;;;5.18;1.50;;;11.70;57.70;;;;;;4976736;28;20522;-79
2021/04/14 11:27:23;;;;;;;4.70;1.48;;;11.80;58.10;;;;;;4979181;28;20156;-76
2021/04/14 11:29:51;;;;;;;5.53;1.52;;;11.80;58.30;;;;;;4979434;28;20081;-76
2021/04/14 11:32:20;;;;;;;6.70;1.50;;;12.50;58.80;;;;;;4979607;28;20081;-78
2021/04/14 11:35:00;;;;;;;6.65;1.58;;;12.80;58.40;;;;;;4979241;28;20093;-80
2021/04/14 11:37:40;;;;;;;5.80;1.42;;;14.30;59.60;;;;;;4960861;28;20814;-75
2021/04/14 11:40:30;;;;;;;3.17;1.30;;;15.20;57.90;;;;;;4960248;28;20046;-74
2021/04/14 11:42:59;;;;;;;4.43;1.30;;;16.50;56.70;;;;;;4958933;28;20129;-73
2021/04/14 11:45:29;;;;;;;4.32;1.35;;;15.90;55.40;;;;;;4956607;28;20046;-77
2021/04/14 11:48:07;;;;;;;7.20;2.10;;;15.60;55.20;;;;;;4962934;28;20317;-79
2021/04/14 11:50:34;;;;;;;6.90;1.55;;;15.00;54.20;;;;;;4962151;28;20096;-78
2021/04/14 11:53:02;;;;;;;4.03;1.38;;;14.30;53.80;;;;;;4963596;28;20646;-79
2021/04/14 11:55:36;;;;;;;8.68;2.13;;;13.70;55.80;;;;;;4966206;28;20511;-79
2021/04/14 11:58:04;;;;;;;7.88;2.50;;;13.40;57.30;;;;;;4968353;28;20050;-76
2021/04/14 12:00:40;;;;;;;7.13;1.85;;;12.70;59.20;;;;;;4970303;28;20086;-79
2021/04/14 12:03:25;;;;;;;4.28;1.42;;;12.40;60.00;;;;;;4963958;28;20431;-79
2021/04/14 12:05:52;;;;;;;5.00;1.35;;;12.10;60.00;;;;;;4971040;28;20391;-77
2021/04/14 12:08:20;;;;;;;5.13;1.30;;;11.90;61.90;;;;;;4969806;28;20473;-78
2021/04/14 12:10:47;;;;;;;6.55;1.65;;;11.70;62.80;;;;;;4970962;28;20194;-78
2021/04/14 12:13:15;;;;;;;7.43;1.65;;;11.40;66.20;;;;;;4971142;28;20145;-77
2021/04/14 12:15:41;;;;;;;4.05;1.30;;;11.20;68.70;;;;;;4971542;28;20469;-77
2021/04/14 12:18:08;;;;;;;3.95;1.40;;;11.20;70.10;;;;;;4971103;28;20054;-78
2021/04/14 12:20:34;;;;;;;4.20;1.20;;;11.50;69.90;;;;;;4971371;28;20082;-75
2021/04/14 12:23:01;;;;;;;;;;;11.50;67.10;;;;;;4971611;28;20046;-78
2021/04/14 12:25:28;;;;;;;6.38;1.23;;;11.70;65.20;;;;;;4972601;28;20382;-79
2021/04/14 12:27:55;;;;;;;4.85;1.42;;;12.30;64.00;;;;;;4972113;28;20689;-77
2021/04/14 12:30:25;;;;;;;4.78;1.60;;;13.20;63.40;;;;;;4972496;28;20062;-78
2021/04/14 12:32:51;;;;;;;6.15;1.10;;;13.50;60.80;;;;;;4972366;28;20144;-79
2021/04/14 12:35:18;;;;;;;;;;;14.60;59.90;;;;;;4967523;28;20128;-80
2021/04/14 12:37:44;;;;;;;3.38;1.13;;;15.60;57.50;;;;;;4964583;28;20291;-76
2021/04/14 12:40:12;;;;;;;3.17;1.15;;;16.20;55.50;;;;;;4959666;28;20070;-77
2021/04/14 12:42:38;;;;;;;2.60;0.68;;;16.40;55.90;;;;;;4945320;28;20522;-76
2021/04/14 12:45:14;;;;;;;3.92;0.93;;;16.90;54.10;;;;;;4956757;28;20089;-76
2021/04/14 12:47:40;;;;;;;3.08;0.93;;;17.40;51.50;;;;;;4967482;28;20077;-76
2021/04/14 12:50:08;;;;;;;4.38;1.05;;;17.90;51.70;;;;;;4967707;28;20086;-76
2021/04/14 12:52:43;;;;;;;4.97;1.33;;;17.90;50.90;;;;;;4967698;28;20116;-76
2021/04/14 12:55:14;;;;;;;4.82;1.23;;;17.30;52.30;;;;;;4967763;28;20153;-76
2021/04/14 12:57:42;;;;;;;5.43;1.60;;;17.00;53.50;;;;;;4967757;28;20244;-76
2021/04/14 13:00:14;;;;;;;4.72;1.30;;;15.40;55.10;;;;;;4967562;28;20080;-76
2021/04/14 13:02:42;;;;;;;2.70;0.88;;;14.90;56.00;;;;;;4969280;28;20050;-76